Aérodrome :
LOGIN :

S'inscrire | Disclaimer

   EN    FR    IT 

 










Légende :    VFR   VFR Marginal   IFR   IFR Intensif   IFR Très Intensif
Visi : 
Plafond : 
>= 8 km
>= 3000ft
5 à 8 km
1000 à 3000 ft
1500m à 5 km
500 à 1000 ft
800 à 1500m
200 à 500 ft
< 800m
< 200 ft
Symboles :   Orages  Brouillard  Fortes neiges  Fortes précipitations  Vent > 20 kt
SIGMETs :   Divers  Orages  Givrage  Turbulence  Onde Orograph.  Cendres Volcan.






- Altitude de l'aérodrome : 405 ft
- Code IATA : ODH


EGVO - RAF Odiham

DERNIER METAR :
  • 271120Z 32013KT 9999 FEW006 BKN009 03/02 Q1000 BECMG 33016G26KT FEW020 RMK GRN BECMG BLU

METARs EXPIRÉS :
  • 271050Z 32012KT 9999 BKN006 03/02 Q0999 BECMG 33016G26KT FEW020 RMK YLO1 BECMG BLU
  • 271022Z 33010KT 9999 -RADZ BKN004 02/02 Q0998 BECMG FEW020 RMK YLO2 BECMG BLU
  • 270950Z 32011KT 9999 -RASN FEW002 OVC003 02/02 Q0997 BECMG BKN020 RMK YLO2 BECMG WHT
  • 270920Z 33010KT 5000 -SN SCT002 OVC003 01/01 Q0996 BECMG FEW002 BKN004 RMK AMB BECMG YLO2
  • 270850Z 34010KT 3700 SN FEW002 OVC003 01/01 Q0996 TEMPO 2500 SN BKN002 RMK YLO2 TEMPO AMB

TAF TAF EGVO
Valide du 27 à 09h jusqu'au 27 à 21h UTC


270744Z 2709/2721 35006KT 9999 -RA BKN005
TEMPO 2709/2711 4000 RASN BKN003
PROB30
TEMPO 2709/2710 2000 SN BKN002
BECMG 2710/2713 33016G26KT NSW SCT030
BECMG 2716/2718 30010KT



MET'MAP, la Météo Aéronautique d'un coup d'oeil ! - Copyright ORBIFLY Décembre 2007 - Disclaimer

ORBIFLY MET'MAP TEAM :

Programmation & Développement : Alexandra Zaïnal
Sur une idée originale de : Baudouin d'Aumeries
Assistance à la programmation : Marc-Olivier Méhu
Soutien technique & logistique : Manuel Goepfert

Contact : metmap@orbifly.com




SOURCES & CREDITS :

   NOAA